Eyr Myken — LCQU — position and weather

sailwx.info

Track history (hours):
 
Tides and Currents Weather Stations Pressure Air Temp Water Temp Dewpoint Dewpoint Depression Visibility Wind Speed Wind Dir Waves Ship Positions

Eyr Myken

Last reported at 2015-Aug-31 02:06 UTC. Time now 2015-Aug-31 10:54 UTC.
Position N 66°32' E 012°53'.

Length 18 m; draft 1.5 m.

Type: Medical transport. MMSI: 257054000.

Date/timePositionNaut miles runAvg speedWind from/ knotsBaromVisibWave heightAir tempDewpointWater temp
2015-Aug-31 02:06N 66°32' E 012°53'1527.6
2015-Aug-31 01:34N 66°18' E 012°40'5 4.8
2015-Aug-31 00:26N 66°12' E 012°38'2224.9
2015-Aug-30 23:33N 66°30' E 012°08'1716.5
2015-Aug-30 22:33N 66°23' E 012°46'  
2015-Aug-28 02:33N 66°32' E 012°53'1211.3
2015-Aug-28 01:30N 66°22' E 012°37'7 2.1
2015-Aug-27 22:12N 66°15' E 012°31'1523.1
2015-Aug-27 21:33N 66°28' E 012°13'1615.8
2015-Aug-27 20:33N 66°36' E 012°47'6 0.2
2015-Aug-26 16:32N 66°30' E 012°51'17 8.6
2015-Aug-26 14:34N 66°15' E 012°33'2120.4
2015-Aug-26 13:33N 66°33' E 012°11'19 5.7
2015-Aug-26 10:14N 66°35' E 012°58'1212.7
2015-Aug-26 09:16N 66°24' E 012°49'0 0.0
2015-Aug-24 07:14N 66°24' E 012°50'0 0.5
2015-Aug-24 06:26N 66°24' E 012°50'17 0.4
2015-Aug-22 12:25N 66°39' E 013°05'0 0.0
2015-Aug-22 11:31N 66°39' E 013°05'0 0.0
2015-Aug-22 10:32N 66°39' E 013°05'4 0.3
2015-Aug-21 21:14N 66°37' E 012°57'7 1.7
2015-Aug-21 17:07N 66°41' E 013°12'1526.1
2015-Aug-21 16:33N 66°27' E 012°59'17 8.3
2015-Aug-21 14:33N 66°15' E 012°30'1918.8
2015-Aug-21 13:34N 66°32' E 012°07'2618.4
2015-Aug-21 12:08N 66°40' E 013°10'  
Track history (hours):
 
Tides and Currents Weather Stations Pressure Air Temp Water Temp Dewpoint Dewpoint Depression Visibility Wind Speed Wind Dir Waves Ship Positions

Eyr Myken

Last reported at 2015-Aug-31 02:06 UTC. Time now 2015-Aug-31 10:54 UTC.
Position N 66°32' E 012°53'.

Length 18 m; draft 1.5 m.

Type: Medical transport. MMSI: 257054000.

Date/timePositionNaut miles runAvg speedWind from/ knotsBaromVisibWave heightAir tempDewpointWater temp
2015-Aug-31 02:06N 66°32' E 012°53'1527.6
2015-Aug-31 01:34N 66°18' E 012°40'5 4.8
2015-Aug-31 00:26N 66°12' E 012°38'2224.9
2015-Aug-30 23:33N 66°30' E 012°08'1716.5
2015-Aug-30 22:33N 66°23' E 012°46'  
2015-Aug-28 02:33N 66°32' E 012°53'1211.3
2015-Aug-28 01:30N 66°22' E 012°37'7 2.1
2015-Aug-27 22:12N 66°15' E 012°31'1523.1
2015-Aug-27 21:33N 66°28' E 012°13'1615.8
2015-Aug-27 20:33N 66°36' E 012°47'6 0.2
2015-Aug-26 16:32N 66°30' E 012°51'17 8.6
2015-Aug-26 14:34N 66°15' E 012°33'2120.4
2015-Aug-26 13:33N 66°33' E 012°11'19 5.7
2015-Aug-26 10:14N 66°35' E 012°58'1212.7
2015-Aug-26 09:16N 66°24' E 012°49'0 0.0
2015-Aug-24 07:14N 66°24' E 012°50'0 0.5
2015-Aug-24 06:26N 66°24' E 012°50'17 0.4
2015-Aug-22 12:25N 66°39' E 013°05'0 0.0
2015-Aug-22 11:31N 66°39' E 013°05'0 0.0
2015-Aug-22 10:32N 66°39' E 013°05'4 0.3
2015-Aug-21 21:14N 66°37' E 012°57'7 1.7
2015-Aug-21 17:07N 66°41' E 013°12'1526.1
2015-Aug-21 16:33N 66°27' E 012°59'17 8.3
2015-Aug-21 14:33N 66°15' E 012°30'1918.8
2015-Aug-21 13:34N 66°32' E 012°07'2618.4
2015-Aug-21 12:08N 66°40' E 013°10'  

Dump ship's entire track history